Time;durP1;ratioP1;P1;durP2;ratioP2;P2;SDS_P1;SDS_P2;PMS_P1;PMS_P2;Temp;Humidity;BMP_temperature;BMP_pressure;BME280_temperature;BME280_humidity;BME280_pressure;Samples;Min_cycle;Max_cycle;Signal;HPM_P1;HPM_P2
2023/10/10 05:47:40;;;;;;;52.47;26.75;;;;;;;10.04;100.00;101747.53;4937078;29;20051;-96
2023/10/10 05:50:14;;;;;;;46.33;24.17;;;;;;;10.06;100.00;101748.13;4923397;29;20024;-96
2023/10/10 05:52:55;;;;;;;47.67;25.38;;;;;;;10.12;100.00;101756.03;4940118;29;20015;-96
2023/10/10 05:55:23;;;;;;;50.05;24.20;;;;;;;10.14;100.00;101762.00;4940169;29;20024;-96
2023/10/10 06:20:42;;;;;;;38.78;20.85;;;;;;;10.63;100.00;101798.47;5377801;23;20074;-96
2023/10/10 06:23:32;;;;;;;;;;;;;;;;;;;;;
2023/10/10 09:02:51;;;;;;;23.60;10.60;;;;;;;14.71;100.00;101799.78;4960314;29;20177;-96
2023/10/10 09:05:19;;;;;;;26.05;11.05;;;;;;;14.49;100.00;101765.66;4962221;29;20063;-96
2023/10/10 10:56:47;;;;;;;17.35;8.30;;;;;;;18.24;100.00;101748.09;4955536;28;20087;-96
2023/10/10 10:59:22;;;;;;;18.63;7.70;;;;;;;18.42;100.00;101753.88;4933178;29;20047;-95
2023/10/10 11:06:21;;;;;;;17.80;7.20;;;;;;;18.87;100.00;101781.56;4878808;29;20197;-95
2023/10/10 11:09:28;;;;;;;17.40;7.53;;;;;;;18.95;100.00;101779.34;4922492;29;20091;-95
2023/10/10 11:12:01;;;;;;;16.45;7.03;;;;;;;19.07;100.00;101774.28;4952792;29;20095;-96
2023/10/10 11:14:30;;;;;;;13.03;7.30;;;;;;;18.97;100.00;101733.69;4948495;29;20048;-95
2023/10/10 11:16:57;;;;;;;18.87;6.63;;;;;;;19.24;98.56;101771.06;4952608;29;20287;-95
2023/10/10 11:19:46;;;;;;;15.60;7.13;;;;;;;19.09;100.00;101728.63;4940682;29;20040;-95
2023/10/10 11:25:45;;;;;;;;;;;;;;;;;;;;;
2023/10/10 11:28:21;;;;;;;14.93;6.95;;;;;;;19.55;97.25;101734.44;5131687;23;20062;-95
2023/10/10 12:34:43;;;;;;;13.40;5.68;;;;;;;21.67;82.01;101692.00;4955156;29;20058;-96
2023/10/10 12:37:15;;;;;;;13.97;5.27;;;;;;;21.57;81.78;101677.47;4957979;29;20046;-95
2023/10/10 12:42:51;;;;;;;13.07;5.45;;;;;;;21.78;80.06;101685.97;5065174;23;20055;-96
2023/10/10 12:45:17;;;;;;;13.73;5.70;;;;;;;21.47;73.05;101645.03;4975762;29;20027;-96
2023/10/10 12:47:58;;;;;;;14.10;5.85;;;;;;;21.63;76.56;101659.91;4977579;28;20026;-96
2023/10/10 12:51:02;;;;;;;11.40;4.80;;;;;;;21.77;75.22;101675.34;5634880;23;20024;-96
2023/10/10 12:53:32;;;;;;;13.40;5.27;;;;;;;21.72;73.76;101670.84;4940693;29;20342;-96
2023/10/10 12:56:17;;;;;;;13.38;5.50;;;;;;;21.58;75.73;101642.84;4946463;29;20020;-95
2023/10/10 13:01:27;;;;;;;11.63;5.03;;;;;;;21.68;70.76;101655.44;5035199;23;20058;-95
2023/10/10 13:04:07;;;;;;;8.65;4.63;;;;;;;21.67;70.72;101653.81;4982802;28;20014;-96
2023/10/10 13:06:52;;;;;;;12.03;5.07;;;;;;;21.82;70.57;101669.00;4981721;28;20051;-96
2023/10/10 13:09:19;;;;;;;13.93;5.13;;;;;;;21.79;70.63;101659.50;4981929;28;20016;-95
2023/10/10 13:11:56;;;;;;;10.20;5.10;;;;;;;21.67;71.54;101640.19;4981758;28;20026;-95
2023/10/10 13:14:32;;;;;;;10.20;4.22;;;;;;;21.62;69.93;101630.22;4981932;28;20023;-96
2023/10/10 13:17:28;;;;;;;8.65;4.60;;;;;;;21.68;68.45;101639.06;4981901;28;20015;-96
2023/10/10 13:22:30;;;;;;;13.43;4.93;;;;;;;22.01;67.20;101638.72;5139934;23;20306;-96
2023/10/10 13:32:10;;;;;;;9.65;4.70;;;;;;;23.43;68.38;101663.88;4903706;29;20044;-96
2023/10/10 21:04:46;;;;;;;5.78;3.58;;;;;;;15.17;100.00;101386.97;5560624;23;20066;-96
2023/10/10 21:07:12;;;;;;;6.10;3.58;;;;;;;15.38;100.00;101417.41;4968771;29;20058;-91
2023/10/10 21:09:38;;;;;;;8.67;3.60;;;;;;;15.26;100.00;101387.19;5454136;23;20043;-96
2023/10/10 21:12:07;;;;;;;9.38;4.32;;;;;;;15.34;100.00;101394.75;4993200;28;20050;-96
2023/10/10 21:14:36;;;;;;;9.43;4.23;;;;;;;15.58;100.00;101427.31;4996630;28;20019;-96
2023/10/10 21:17:02;;;;;;;10.90;4.10;;;;;;;15.58;100.00;101421.91;5082838;23;20314;-92
2023/10/10 21:19:37;;;;;;;8.93;4.60;;;;;;;15.30;100.00;101380.16;4944671;29;20030;-96
2023/10/10 21:22:42;;;;;;;8.80;4.20;;;;;;;15.58;100.00;101421.91;4946733;29;20008;-96
2023/10/10 21:25:08;;;;;;;8.55;4.13;;;;;;;15.28;100.00;101375.06;4939379;29;20106;-92
2023/10/10 21:27:35;;;;;;;12.35;4.40;;;;;;;15.44;100.00;101412.78;4940902;29;20062;-95
2023/10/10 21:30:01;;;;;;;7.75;4.30;;;;;;;15.47;100.00;101417.66;4936805;29;20138;-96
2023/10/10 21:32:27;;;;;;;7.50;4.03;;;;;;;15.45;100.00;101427.91;4939177;29;20055;-96
2023/10/10 21:34:55;;;;;;;7.13;4.30;;;;;;;15.49;100.00;101415.47;4947182;29;20114;-93
2023/10/10 21:37:21;;;;;;;14.43;4.90;;;;;;;15.50;100.00;101416.28;5053350;23;20051;-95
2023/10/10 21:39:47;;;;;;;7.95;4.30;;;;;;;15.49;100.00;101415.47;5120995;23;20095;-96
2023/10/10 21:42:14;;;;;;;7.57;4.40;;;;;;;15.49;100.00;101410.06;4945346;29;20008;-95
2023/10/10 21:44:39;;;;;;;9.50;4.40;;;;;;;15.51;100.00;101404.38;4946225;29;20291;-94
2023/10/10 21:47:05;;;;;;;7.78;4.40;;;;;;;15.43;100.00;101400.38;4937668;29;20087;-96
2023/10/10 21:49:30;;;;;;;9.37;4.33;;;;;;;15.40;100.00;101401.75;4939674;29;20483;-94
2023/10/10 21:51:56;;;;;;;13.00;4.80;;;;;;;15.37;100.00;101401.47;4945219;29;20314;-96
2023/10/10 21:54:22;;;;;;;9.53;4.43;;;;;;;15.39;100.00;101402.00;4953814;29;20028;-93
2023/10/10 21:56:48;;;;;;;8.75;4.70;;;;;;;15.32;100.00;101394.19;4936774;29;20055;-93
2023/10/10 21:59:13;;;;;;;12.27;4.90;;;;;;;15.28;100.00;101391.25;4945435;29;20072;-93
2023/10/10 22:01:39;;;;;;;8.77;4.50;;;;;;;15.35;100.00;101392.84;4950461;29;20464;-93
2023/10/10 22:04:04;;;;;;;11.23;4.40;;;;;;;15.36;100.00;101394.44;4937997;29;20031;-94
2023/10/10 22:06:30;;;;;;;11.30;5.10;;;;;;;15.41;100.00;101400.66;4952145;29;20140;-93
2023/10/10 22:08:57;;;;;;;12.60;4.07;;;;;;;15.42;100.00;101396.88;4942377;29;20038;-93
2023/10/10 22:11:23;;;;;;;9.27;4.35;;;;;;;15.46;100.00;101402.53;4938081;29;20024;-94
2023/10/10 22:13:49;;;;;;;6.00;3.80;;;;;;;15.46;100.00;101399.81;4936794;29;20047;-94
2023/10/10 22:16:15;;;;;;;11.93;4.07;;;;;;;15.52;100.00;101393.28;4935040;29;21022;-95
2023/10/10 22:18:41;;;;;;;9.65;4.30;;;;;;;15.51;100.00;101389.00;4936721;29;20024;-94
2023/10/10 22:21:09;;;;;;;11.38;4.25;;;;;;;15.50;100.00;101391.97;4934715;29;20507;-93
2023/10/10 22:23:37;;;;;;;11.10;4.10;;;;;;;15.45;100.00;101382.78;4936814;29;20032;-95
2023/10/10 22:26:02;;;;;;;17.57;4.90;;;;;;;15.48;100.00;101392.25;4935092;29;20304;-95
2023/10/10 22:31:43;;;;;;;11.32;4.43;;;;;;;15.24;100.00;101349.69;5189116;23;20105;-93
2023/10/10 22:34:09;;;;;;;9.23;4.30;;;;;;;15.39;100.00;101370.44;4952945;29;20070;-92
2023/10/10 22:37:25;;;;;;;11.23;4.15;;;;;;;15.62;100.00;101397.03;4954825;28;20086;-93
2023/10/10 22:39:51;;;;;;;8.98;4.47;;;;;;;15.48;100.00;101376.06;4972524;28;20129;-95
2023/10/10 22:42:16;;;;;;;9.70;4.70;;;;;;;15.52;100.00;101370.91;4956183;28;20113;-94
2023/10/10 22:45:34;;;;;;;13.83;4.63;;;;;;;15.72;100.00;101386.16;4955403;28;20074;-95
2023/10/10 22:56:33;;;;;;;11.32;4.22;;;;;;;15.54;100.00;101347.91;4960505;23;20055;-96
2023/10/10 23:02:50;;;;;;;9.60;4.10;;;;;;;15.72;100.00;101392.41;4954218;29;20067;-94
2023/10/10 23:05:33;;;;;;;12.15;4.18;;;;;;;15.48;100.00;101351.75;4942488;29;20084;-92
2023/10/10 23:08:02;;;;;;;8.90;4.00;;;;;;;15.56;100.00;101371.97;4949513;29;20063;-93
2023/10/10 23:18:36;;;;;;;8.32;4.25;;;;;;;15.65;100.00;101380.28;4950411;29;20067;-95
2023/10/10 23:25:01;;;;;;;7.53;3.83;;;;;;;15.58;100.00;101367.88;4863837;29;20080;-96
2023/10/10 23:38:09;;;;;;;11.63;4.38;;;;;;;15.10;100.00;101349.47;4957343;28;20066;-96
2023/10/10 23:40:40;;;;;;;7.78;4.32;;;;;;;15.15;100.00;101362.16;5081264;23;20196;-96
2023/10/10 23:43:18;;;;;;;6.75;3.95;;;;;;;15.23;100.00;101375.06;4960991;28;20036;-95
2023/10/10 23:46:10;;;;;;;8.90;3.90;;;;;;;15.25;100.00;101377.47;4940020;28;20024;-96
2023/10/10 23:48:36;;;;;;;13.30;3.97;;;;;;;15.10;100.00;101345.97;4934934;29;20046;-96
2023/10/10 23:51:08;;;;;;;8.82;3.67;;;;;;;15.10;100.00;101348.66;5130137;23;20067;-96
2023/10/10 23:53:36;;;;;;;8.57;3.95;;;;;;;15.12;100.00;101347.31;4956293;29;20039;-96
2023/10/10 23:56:18;;;;;;;9.10;3.90;;;;;;;15.10;100.00;101345.97;4957181;28;20015;-96
2023/10/10 23:59:00;;;;;;;7.33;3.50;;;;;;;15.07;100.00;101344.63;4957886;28;20371;-96
